createdAt,value
2023-12-17T00:00:23.688Z,1.13
2023-12-17T00:03:16.630Z,1.27
2023-12-17T00:05:38.073Z,2.25
2023-12-17T00:08:05.574Z,1.85
2023-12-17T00:10:32.669Z,3.15
2023-12-17T00:13:01.320Z,2.47
2023-12-17T00:15:28.419Z,1.65
2023-12-17T00:17:55.559Z,1.38
2023-12-17T00:20:22.888Z,1.48
2023-12-17T00:22:49.991Z,1.67
2023-12-17T00:25:17.347Z,1.70
2023-12-17T00:27:44.499Z,2.03
2023-12-17T00:30:13.690Z,1.75
2023-12-17T00:35:08.254Z,1.25
2023-12-17T00:37:35.394Z,1.67
2023-12-17T00:40:03.042Z,1.65
2023-12-17T00:42:30.230Z,1.75
2023-12-17T00:44:57.378Z,1.05
2023-12-17T00:47:25.935Z,1.17
2023-12-17T00:49:53.634Z,2.08
2023-12-17T00:52:23.614Z,1.25
2023-12-17T00:54:50.799Z,1.73
2023-12-17T00:57:18.518Z,2.20
2023-12-17T00:59:45.686Z,1.67
2023-12-17T01:02:14.148Z,2.25
2023-12-17T01:04:42.788Z,1.58
2023-12-17T01:07:10.017Z,1.05
2023-12-17T01:09:37.206Z,1.13
2023-12-17T01:12:05.985Z,1.10
2023-12-17T01:14:36.328Z,1.05
2023-12-17T01:17:04.774Z,1.92
2023-12-17T01:19:32.340Z,1.38
2023-12-17T01:22:01.356Z,2.55
2023-12-17T01:24:28.507Z,1.05
2023-12-17T01:26:55.574Z,1.95
2023-12-17T01:29:22.804Z,0.98
2023-12-17T01:31:49.847Z,0.93
2023-12-17T01:34:17.111Z,2.15
2023-12-17T01:36:44.418Z,1.15
2023-12-17T01:39:13.117Z,1.98
2023-12-17T01:41:40.315Z,1.45
2023-12-17T01:44:07.452Z,1.05
2023-12-17T01:46:34.776Z,0.75
2023-12-17T01:49:02.112Z,1.27
2023-12-17T01:51:29.576Z,0.85
2023-12-17T01:53:56.847Z,1.30
2023-12-17T01:56:25.996Z,1.17
2023-12-17T01:58:53.746Z,1.40
2023-12-17T02:01:21.204Z,0.88
2023-12-17T02:03:48.577Z,1.23
2023-12-17T02:06:15.970Z,1.23
2023-12-17T02:08:43.260Z,0.98
2023-12-17T02:11:10.544Z,0.85
2023-12-17T02:13:39.226Z,1.38
2023-12-17T02:16:07.194Z,0.70
2023-12-17T02:18:34.505Z,2.08
2023-12-17T02:21:02.271Z,1.17
2023-12-17T02:23:30.886Z,1.45
2023-12-17T02:25:59.445Z,1.88
2023-12-17T02:28:26.722Z,1.55
2023-12-17T02:30:53.958Z,0.85
2023-12-17T02:33:21.358Z,0.52
2023-12-17T02:35:48.775Z,1.52
2023-12-17T02:38:16.176Z,1.35
2023-12-17T02:40:46.487Z,0.85
2023-12-17T02:43:13.716Z,2.20
2023-12-17T02:45:41.145Z,1.00
2023-12-17T02:48:08.530Z,1.20
2023-12-17T02:50:35.725Z,1.25
2023-12-17T02:53:02.933Z,1.92
2023-12-17T02:55:30.014Z,0.75
2023-12-17T02:57:58.594Z,1.42
2023-12-17T03:00:25.922Z,1.27
2023-12-17T03:02:53.520Z,1.08
2023-12-17T03:05:20.923Z,1.60
2023-12-17T03:07:48.070Z,1.27
2023-12-17T03:10:15.376Z,1.15
2023-12-17T03:12:42.699Z,1.00
2023-12-17T03:15:11.540Z,1.30
2023-12-17T03:17:39.172Z,1.67
2023-12-17T03:20:10.876Z,1.08
2023-12-17T03:22:37.958Z,0.55
2023-12-17T03:25:05.611Z,2.05
2023-12-17T03:27:32.776Z,1.73
2023-12-17T03:29:59.983Z,2.53
2023-12-17T03:32:28.783Z,0.70
2023-12-17T03:34:55.993Z,0.52
2023-12-17T03:37:23.191Z,1.35
2023-12-17T03:39:51.789Z,0.85
2023-12-17T03:42:19.004Z,0.68
2023-12-17T03:44:47.571Z,1.25
2023-12-17T03:47:16.147Z,1.33
2023-12-17T03:49:44.672Z,1.45
2023-12-17T03:52:12.020Z,0.82
2023-12-17T03:54:39.182Z,0.82
2023-12-17T03:57:06.264Z,0.80
2023-12-17T03:59:33.590Z,1.52
2023-12-17T04:02:03.207Z,1.58
2023-12-17T04:04:30.415Z,1.17
2023-12-17T04:06:58.937Z,0.93
2023-12-17T04:09:26.094Z,0.80
2023-12-17T04:11:53.325Z,1.45
2023-12-17T04:14:20.502Z,1.02
2023-12-17T04:16:47.698Z,1.67
2023-12-17T04:19:15.070Z,0.45
2023-12-17T04:21:42.359Z,1.33
2023-12-17T04:24:10.979Z,0.68
2023-12-17T04:26:38.116Z,1.35
2023-12-17T04:29:05.497Z,1.15
2023-12-17T04:31:33.289Z,0.93
2023-12-17T04:34:01.416Z,0.45
2023-12-17T04:36:29.011Z,1.02
2023-12-17T04:38:56.104Z,1.23
2023-12-17T04:41:24.792Z,1.23
2023-12-17T04:43:51.932Z,0.73
2023-12-17T04:46:19.269Z,0.68
2023-12-17T04:48:46.917Z,1.40
2023-12-17T04:51:14.263Z,0.93
2023-12-17T04:53:41.441Z,0.70
2023-12-17T04:56:09.549Z,0.85
2023-12-17T04:58:38.194Z,0.52
2023-12-17T05:01:05.673Z,1.45
2023-12-17T05:03:33.005Z,1.17
2023-12-17T05:06:00.314Z,1.73
2023-12-17T05:08:27.632Z,0.57
2023-12-17T05:10:55.120Z,1.00
2023-12-17T05:13:22.276Z,1.02
2023-12-17T05:15:51.020Z,1.42
2023-12-17T05:18:18.274Z,2.08
2023-12-17T05:20:49.554Z,1.15
2023-12-17T05:23:16.832Z,0.80
2023-12-17T05:25:43.940Z,1.23
2023-12-17T05:28:12.401Z,1.42
2023-12-17T05:30:39.660Z,1.40
2023-12-17T05:33:08.773Z,0.90
2023-12-17T05:35:36.186Z,1.13
2023-12-17T05:38:03.279Z,2.08
2023-12-17T05:40:30.652Z,1.52
2023-12-17T05:42:57.806Z,1.55
2023-12-17T05:45:24.967Z,1.77
2023-12-17T05:47:52.420Z,2.00
2023-12-17T05:50:21.299Z,1.38
2023-12-17T05:52:48.574Z,0.98
2023-12-17T05:55:16.060Z,1.40
2023-12-17T05:57:45.260Z,1.58
2023-12-17T06:00:13.878Z,1.08
2023-12-17T06:02:41.037Z,1.90
2023-12-17T06:05:09.104Z,2.15
2023-12-17T06:07:37.818Z,1.80
2023-12-17T06:10:05.723Z,1.98
2023-12-17T06:12:32.984Z,1.75
2023-12-17T06:15:00.372Z,2.00
2023-12-17T06:17:27.629Z,2.63
2023-12-17T06:19:54.800Z,2.50
2023-12-17T06:22:22.076Z,1.60
2023-12-17T06:24:50.699Z,2.13
2023-12-17T06:27:19.024Z,2.72
2023-12-17T06:29:48.480Z,1.17
2023-12-17T06:34:43.436Z,1.50
2023-12-17T06:37:12.033Z,1.80
2023-12-17T06:39:43.769Z,1.70
2023-12-17T06:42:12.573Z,1.92
2023-12-17T06:44:39.755Z,1.45
2023-12-17T06:47:17.760Z,1.10
2023-12-17T06:49:50.063Z,2.03
2023-12-17T06:52:17.182Z,1.63
2023-12-17T06:54:44.398Z,1.08
2023-12-17T06:57:13.063Z,2.70
2023-12-17T06:59:40.368Z,2.33
2023-12-17T07:02:07.560Z,2.83
2023-12-17T07:04:34.728Z,1.45
2023-12-17T07:07:01.997Z,1.92
2023-12-17T07:09:29.219Z,2.88
2023-12-17T07:11:56.524Z,1.50
2023-12-17T07:14:25.162Z,2.28
2023-12-17T07:16:53.326Z,2.03
2023-12-17T07:19:21.550Z,2.22
2023-12-17T07:21:49.022Z,3.00
2023-12-17T07:24:16.996Z,1.45
2023-12-17T07:26:44.364Z,1.08
2023-12-17T07:29:11.461Z,2.17
2023-12-17T07:31:40.555Z,2.47
2023-12-17T07:34:07.821Z,1.80
2023-12-17T07:36:34.989Z,1.90
2023-12-17T07:39:02.182Z,1.83
2023-12-17T07:41:29.421Z,2.20
2023-12-17T07:43:56.853Z,1.33
2023-12-17T07:46:24.102Z,1.38
2023-12-17T07:48:52.724Z,1.80
2023-12-17T07:51:20.150Z,2.47
2023-12-17T07:53:48.950Z,1.63
2023-12-17T07:56:16.226Z,1.92
2023-12-17T07:58:43.501Z,1.67
2023-12-17T08:01:10.930Z,1.50
2023-12-17T08:03:38.304Z,1.55
2023-12-17T08:06:07.643Z,1.77
2023-12-17T08:08:34.817Z,1.88
2023-12-17T08:11:01.963Z,1.15
2023-12-17T08:13:29.140Z,3.17
2023-12-17T08:15:56.388Z,1.92
2023-12-17T08:18:23.822Z,0.93
2023-12-17T08:20:51.201Z,2.13
2023-12-17T08:23:19.917Z,2.13
2023-12-17T08:25:47.229Z,1.45
2023-12-17T08:28:14.552Z,1.77
2023-12-17T08:30:41.933Z,1.45
2023-12-17T08:33:09.332Z,1.80
2023-12-17T08:35:39.065Z,2.05
2023-12-17T08:38:07.433Z,1.08
2023-12-17T08:40:40.910Z,1.38
2023-12-17T08:43:08.837Z,1.73
2023-12-17T08:45:36.655Z,1.40
2023-12-17T08:48:04.905Z,1.70
2023-12-17T08:50:32.373Z,1.50
2023-12-17T08:52:59.572Z,1.77
2023-12-17T08:55:26.810Z,2.03
2023-12-17T08:57:55.383Z,2.15
2023-12-17T09:00:22.656Z,3.08
2023-12-17T09:02:50.018Z,1.45
2023-12-17T09:05:17.228Z,1.50
2023-12-17T09:07:44.592Z,1.75
2023-12-17T09:10:11.979Z,1.83
2023-12-17T09:12:39.165Z,1.70
2023-12-17T09:15:08.361Z,1.65
2023-12-17T09:17:35.703Z,2.13
2023-12-17T09:20:02.955Z,2.38
2023-12-17T09:22:30.152Z,1.77
2023-12-17T09:24:57.517Z,2.90
2023-12-17T09:27:24.788Z,2.83
2023-12-17T09:29:52.025Z,2.67
2023-12-17T09:32:20.527Z,2.70
2023-12-17T09:34:47.787Z,2.35
2023-12-17T09:37:15.050Z,3.38
2023-12-17T09:39:42.148Z,3.03
2023-12-17T09:42:09.308Z,2.75
2023-12-17T09:44:36.533Z,2.90
2023-12-17T09:47:04.483Z,2.17
2023-12-17T09:49:33.434Z,2.40
2023-12-17T09:52:05.892Z,3.55
2023-12-17T09:54:33.155Z,3.08
2023-12-17T09:57:01.623Z,2.33
2023-12-17T09:59:28.799Z,2.85
2023-12-17T10:01:57.094Z,2.88
2023-12-17T10:04:25.676Z,2.95
2023-12-17T10:06:54.595Z,2.42
2023-12-17T10:09:22.300Z,2.70
2023-12-17T10:11:49.616Z,2.83
2023-12-17T10:14:23.534Z,2.50
2023-12-17T10:16:53.588Z,2.75
2023-12-17T10:19:21.132Z,2.42
2023-12-17T10:21:48.837Z,3.42
2023-12-17T10:24:19.366Z,3.15
2023-12-17T10:26:47.956Z,2.42
2023-12-17T10:29:16.348Z,2.38
2023-12-17T10:31:43.946Z,2.38
2023-12-17T10:34:16.458Z,2.63
2023-12-17T10:36:44.734Z,1.98
2023-12-17T10:39:13.355Z,2.65
2023-12-17T10:41:42.327Z,3.05
2023-12-17T10:44:13.085Z,2.40
2023-12-17T10:46:43.028Z,2.40
2023-12-17T10:49:11.249Z,2.25
2023-12-17T10:51:40.211Z,2.22
2023-12-17T10:54:08.040Z,2.67
2023-12-17T10:56:39.293Z,2.08
2023-12-17T10:59:13.806Z,2.40
2023-12-17T11:01:41.784Z,2.58
2023-12-17T11:04:09.415Z,2.83
2023-12-17T11:06:36.702Z,2.53
2023-12-17T11:09:05.259Z,2.58
2023-12-17T11:11:33.432Z,2.53
2023-12-17T11:14:00.934Z,2.78
2023-12-17T11:16:30.378Z,2.83
2023-12-17T11:19:01.279Z,2.10
2023-12-17T11:21:29.113Z,2.58
2023-12-17T11:23:57.818Z,3.22
2023-12-17T11:26:25.457Z,2.90
2023-12-17T11:28:53.714Z,3.05
2023-12-17T11:31:21.325Z,3.53
2023-12-17T11:33:50.209Z,3.38
2023-12-17T11:36:17.871Z,2.88
2023-12-17T11:38:45.656Z,2.55
2023-12-17T11:41:12.843Z,3.05
2023-12-17T11:43:40.075Z,3.08
2023-12-17T11:46:11.524Z,2.60
2023-12-17T11:48:42.813Z,3.22
2023-12-17T11:51:11.584Z,2.95
2023-12-17T11:53:42.786Z,3.03
2023-12-17T11:56:10.090Z,3.45
2023-12-17T11:58:48.177Z,4.55
2023-12-17T12:01:16.160Z,3.13
2023-12-17T12:03:45.199Z,4.10
2023-12-17T12:06:15.480Z,3.13
2023-12-17T12:08:43.817Z,3.38
2023-12-17T12:11:14.262Z,2.80
2023-12-17T12:13:46.681Z,3.13
2023-12-17T12:16:14.474Z,3.80
2023-12-17T12:18:42.138Z,3.10
2023-12-17T12:21:18.252Z,3.45
2023-12-17T12:23:55.684Z,3.45
2023-12-17T12:26:24.570Z,2.67
2023-12-17T12:28:58.317Z,4.35
2023-12-17T12:31:26.117Z,2.92
2023-12-17T12:33:55.386Z,3.58
2023-12-17T12:36:24.314Z,2.88
2023-12-17T12:39:02.440Z,3.63
2023-12-17T12:41:32.858Z,3.22
2023-12-17T12:44:01.151Z,3.33
2023-12-17T12:46:28.474Z,2.65
2023-12-17T12:48:56.736Z,4.38
2023-12-17T12:51:26.498Z,3.70
2023-12-17T12:53:53.837Z,2.72
2023-12-17T12:56:21.133Z,2.85
2023-12-17T12:58:48.551Z,3.92
2023-12-17T13:01:16.290Z,3.42
2023-12-17T13:03:44.018Z,3.85
2023-12-17T13:06:11.649Z,3.65
2023-12-17T13:08:40.696Z,4.05
2023-12-17T13:11:07.981Z,4.80
2023-12-17T13:13:35.386Z,3.95
2023-12-17T13:16:02.601Z,5.30
2023-12-17T13:18:29.940Z,3.83
2023-12-17T13:20:58.480Z,5.72
2023-12-17T13:23:25.774Z,4.05
2023-12-17T13:25:56.157Z,5.13
2023-12-17T13:28:25.429Z,5.18
2023-12-17T13:30:52.746Z,5.93
2023-12-17T13:33:20.097Z,5.20
2023-12-17T13:35:47.594Z,3.97
2023-12-17T13:38:14.750Z,4.50
2023-12-17T13:40:41.902Z,4.45
2023-12-17T13:43:10.655Z,5.97
2023-12-17T13:45:37.867Z,4.47
2023-12-17T13:48:07.949Z,4.63
2023-12-17T13:50:35.281Z,4.95
2023-12-17T13:53:02.482Z,4.95
2023-12-17T13:55:31.857Z,4.45
2023-12-17T13:57:59.182Z,4.63
2023-12-17T14:00:28.808Z,3.80
2023-12-17T14:02:56.254Z,5.03
2023-12-17T14:05:23.641Z,5.65
2023-12-17T14:07:50.951Z,5.18
2023-12-17T14:10:20.961Z,6.25
2023-12-17T14:12:48.471Z,5.38
2023-12-17T14:15:15.788Z,8.10
2023-12-17T14:17:44.620Z,7.93
2023-12-17T14:20:17.051Z,6.75
2023-12-17T14:22:47.949Z,5.60
2023-12-17T14:25:15.307Z,4.68
2023-12-17T14:27:44.340Z,7.55
2023-12-17T14:30:15.218Z,6.45
2023-12-17T14:32:42.686Z,6.65
2023-12-17T14:35:11.904Z,7.00
2023-12-17T14:40:10.662Z,2.25
2023-12-17T14:42:38.389Z,3.38
2023-12-17T14:45:07.038Z,6.15
2023-12-17T14:47:34.730Z,5.97
2023-12-17T14:50:02.076Z,6.13
2023-12-17T14:52:30.661Z,5.38
2023-12-17T14:54:58.086Z,6.80
2023-12-17T14:57:26.518Z,6.07
2023-12-17T14:59:54.045Z,6.65
2023-12-17T15:02:21.310Z,7.75
2023-12-17T15:04:48.698Z,7.35
2023-12-17T15:07:17.231Z,6.07
2023-12-17T15:09:46.773Z,5.93
2023-12-17T15:12:14.239Z,5.53
2023-12-17T15:14:42.144Z,5.85
2023-12-17T15:17:09.377Z,6.90
2023-12-17T15:19:37.441Z,4.35
2023-12-17T15:22:05.249Z,6.47
2023-12-17T15:24:32.570Z,7.53
2023-12-17T15:27:01.281Z,8.40
2023-12-17T15:29:28.477Z,6.22
2023-12-17T15:31:55.661Z,7.50
2023-12-17T15:34:22.974Z,5.57
2023-12-17T15:36:51.821Z,6.90
2023-12-17T15:39:19.005Z,6.20
2023-12-17T15:41:46.921Z,6.13
2023-12-17T15:44:15.579Z,6.03
2023-12-17T15:46:42.831Z,4.40
2023-12-17T15:49:10.388Z,5.22
2023-12-17T15:51:39.899Z,5.53
2023-12-17T15:54:07.721Z,4.80
2023-12-17T15:56:35.010Z,5.40
2023-12-17T15:59:02.231Z,5.53
2023-12-17T16:01:30.971Z,6.65
2023-12-17T16:03:59.179Z,4.72
2023-12-17T16:06:26.844Z,5.70
2023-12-17T16:08:54.180Z,7.95
2023-12-17T16:11:21.487Z,6.97
2023-12-17T16:13:48.813Z,6.68
2023-12-17T16:16:21.284Z,6.75
2023-12-17T16:18:50.611Z,6.05
2023-12-17T16:21:18.086Z,5.00
2023-12-17T16:23:45.552Z,6.10
2023-12-17T16:26:12.956Z,6.55
2023-12-17T16:28:40.211Z,5.25
2023-12-17T16:31:07.620Z,7.68
2023-12-17T16:33:35.099Z,6.72
2023-12-17T16:36:04.409Z,6.15
2023-12-17T16:38:31.667Z,5.78
2023-12-17T16:40:58.868Z,5.93
2023-12-17T16:43:26.044Z,5.35
2023-12-17T16:45:53.316Z,6.25
2023-12-17T16:48:22.120Z,6.28
2023-12-17T16:50:50.248Z,5.60
2023-12-17T16:53:19.140Z,5.80
2023-12-17T16:55:46.381Z,6.15
2023-12-17T16:58:14.701Z,6.53
2023-12-17T17:00:45.071Z,8.52
2023-12-17T17:03:12.936Z,10.27
2023-12-17T17:05:40.236Z,5.45
2023-12-17T17:08:07.541Z,7.05
2023-12-17T17:10:36.264Z,5.40
2023-12-17T17:13:03.783Z,5.07
2023-12-17T17:15:31.169Z,5.47
2023-12-17T17:17:58.688Z,5.22
2023-12-17T17:20:25.963Z,4.72
2023-12-17T17:22:53.272Z,4.45
2023-12-17T17:25:20.538Z,5.32
2023-12-17T17:27:49.176Z,5.57
2023-12-17T17:30:16.753Z,3.78
2023-12-17T17:32:44.992Z,4.85
2023-12-17T17:35:12.378Z,4.93
2023-12-17T17:37:39.740Z,4.70
2023-12-17T17:40:08.066Z,5.03
2023-12-17T17:42:36.348Z,5.10
2023-12-17T17:45:07.168Z,4.65
2023-12-17T17:47:34.661Z,4.50
2023-12-17T17:50:01.952Z,3.40
2023-12-17T17:52:29.098Z,4.35
2023-12-17T17:54:56.478Z,5.75
2023-12-17T17:57:23.934Z,4.93
2023-12-17T17:59:52.930Z,6.40
2023-12-17T18:02:21.627Z,7.30
2023-12-17T18:04:49.015Z,7.00
2023-12-17T18:07:17.216Z,7.05
2023-12-17T18:09:44.688Z,6.03
2023-12-17T18:12:12.073Z,7.40
2023-12-17T18:14:39.381Z,6.05
2023-12-17T18:17:06.862Z,5.38
2023-12-17T18:19:36.497Z,6.30
2023-12-17T18:22:04.004Z,6.55
2023-12-17T18:24:31.271Z,9.75
2023-12-17T18:27:02.250Z,7.03
2023-12-17T18:29:30.080Z,10.82
2023-12-17T18:31:57.526Z,7.32
2023-12-17T18:34:28.241Z,7.07
2023-12-17T18:36:57.076Z,7.72
2023-12-17T18:39:24.870Z,4.47
2023-12-17T18:41:52.089Z,6.13
2023-12-17T18:44:19.388Z,9.32
2023-12-17T18:46:46.729Z,5.32
2023-12-17T18:49:14.463Z,4.50
2023-12-17T18:51:41.776Z,6.30
2023-12-17T18:54:11.898Z,4.90
2023-12-17T18:56:39.477Z,4.93
2023-12-17T18:59:08.177Z,5.88
2023-12-17T19:01:38.259Z,5.00
2023-12-17T19:04:05.852Z,7.38
2023-12-17T19:06:33.155Z,7.47
2023-12-17T19:09:04.310Z,7.30
2023-12-17T19:11:33.161Z,5.57
2023-12-17T19:14:00.739Z,5.97
2023-12-17T19:16:28.114Z,5.05
2023-12-17T19:18:55.292Z,4.95
2023-12-17T19:21:27.644Z,4.03
2023-12-17T19:23:55.315Z,6.00
2023-12-17T19:26:22.714Z,3.80
2023-12-17T19:28:51.491Z,3.33
2023-12-17T19:31:19.066Z,5.00
2023-12-17T19:33:46.482Z,4.70
2023-12-17T19:36:13.926Z,3.75
2023-12-17T19:38:43.827Z,4.60
2023-12-17T19:41:11.303Z,4.57
2023-12-17T19:43:38.465Z,4.40
2023-12-17T19:46:09.500Z,4.45
2023-12-17T19:48:37.070Z,4.03
2023-12-17T19:51:05.128Z,4.05
2023-12-17T19:53:32.678Z,4.35
2023-12-17T19:55:59.922Z,3.90
2023-12-17T19:58:27.849Z,4.95
2023-12-17T20:00:55.341Z,5.15
2023-12-17T20:03:24.063Z,4.38
2023-12-17T20:05:51.472Z,4.22
2023-12-17T20:08:18.790Z,4.70
2023-12-17T20:10:46.300Z,3.67
2023-12-17T20:13:13.650Z,2.78
2023-12-17T20:15:41.782Z,3.08
2023-12-17T20:18:16.896Z,3.42
2023-12-17T20:20:47.426Z,3.97
2023-12-17T20:23:14.921Z,4.50
2023-12-17T20:25:42.146Z,4.60
2023-12-17T20:28:09.343Z,3.75
2023-12-17T20:30:37.623Z,4.63
2023-12-17T20:33:07.794Z,4.93
2023-12-17T20:35:41.752Z,5.53
2023-12-17T20:38:11.708Z,5.57
2023-12-17T20:40:42.382Z,6.30
2023-12-17T20:43:09.655Z,4.45
2023-12-17T20:45:36.813Z,5.63
2023-12-17T20:48:06.649Z,5.90
2023-12-17T20:50:34.145Z,4.05
2023-12-17T20:53:01.605Z,6.97
2023-12-17T20:55:30.298Z,6.05
2023-12-17T20:57:57.414Z,5.90
2023-12-17T21:00:24.698Z,5.13
2023-12-17T21:02:51.962Z,4.47
2023-12-17T21:05:19.243Z,6.68
2023-12-17T21:07:48.231Z,4.93
2023-12-17T21:10:15.712Z,6.32
2023-12-17T21:12:44.445Z,7.68
2023-12-17T21:15:11.911Z,5.15
2023-12-17T21:17:39.271Z,6.25
2023-12-17T21:20:07.321Z,7.70
2023-12-17T21:22:35.044Z,6.13
2023-12-17T21:25:02.468Z,7.88
2023-12-17T21:27:29.954Z,6.60
2023-12-17T21:30:00.948Z,5.47
2023-12-17T21:32:28.447Z,6.13
2023-12-17T21:34:55.859Z,5.72
2023-12-17T21:37:23.326Z,5.82
2023-12-17T21:39:50.556Z,4.45
2023-12-17T21:42:18.551Z,4.40
2023-12-17T21:44:45.710Z,4.78
2023-12-17T21:47:15.371Z,5.15
2023-12-17T21:49:43.682Z,4.45
2023-12-17T21:52:22.656Z,4.05
2023-12-17T21:54:59.295Z,4.55
2023-12-17T21:57:26.556Z,4.43
2023-12-17T22:00:14.185Z,4.35
2023-12-17T22:02:42.883Z,3.30
2023-12-17T22:05:10.054Z,2.88
2023-12-17T22:07:37.245Z,2.10
2023-12-17T22:10:04.739Z,2.35
2023-12-17T22:12:32.005Z,3.15
2023-12-17T22:14:59.193Z,1.70
2023-12-17T22:17:26.522Z,3.25
2023-12-17T22:19:55.460Z,2.28
2023-12-17T22:22:23.081Z,2.55
2023-12-17T22:24:50.225Z,2.28
2023-12-17T22:27:17.494Z,2.25
2023-12-17T22:29:44.982Z,2.42
2023-12-17T22:32:12.285Z,3.13
2023-12-17T22:34:39.776Z,2.53
2023-12-17T22:37:08.787Z,2.88
2023-12-17T22:39:37.210Z,2.67
2023-12-17T22:42:05.583Z,1.83
2023-12-17T22:44:32.754Z,2.85
2023-12-17T22:47:00.067Z,3.00
2023-12-17T22:49:27.315Z,3.28
2023-12-17T22:51:57.306Z,2.80
2023-12-17T22:54:25.938Z,3.05
2023-12-17T22:56:53.571Z,2.45
2023-12-17T22:59:20.758Z,1.75
2023-12-17T23:01:49.750Z,1.98
2023-12-17T23:04:17.272Z,1.58
2023-12-17T23:06:44.804Z,2.45
2023-12-17T23:09:12.143Z,2.17
2023-12-17T23:11:40.888Z,3.22
2023-12-17T23:14:08.127Z,3.10
2023-12-17T23:16:35.364Z,2.20
2023-12-17T23:19:02.770Z,2.70
2023-12-17T23:21:30.006Z,3.90
2023-12-17T23:23:57.184Z,2.47
2023-12-17T23:26:24.491Z,2.25
2023-12-17T23:28:53.211Z,2.63
2023-12-17T23:31:20.437Z,2.03
2023-12-17T23:33:47.779Z,3.08
2023-12-17T23:36:15.185Z,3.17
2023-12-17T23:38:43.175Z,3.40
2023-12-17T23:41:10.401Z,1.88
2023-12-17T23:43:37.674Z,2.92
2023-12-17T23:46:06.390Z,1.80
2023-12-17T23:48:33.745Z,3.17
2023-12-17T23:51:01.150Z,2.38
2023-12-17T23:53:28.302Z,3.63
2023-12-17T23:55:55.548Z,3.58
2023-12-17T23:58:22.766Z,3.42
